sensor_id;sensor_type;location;lat;lon;timestamp;P1;durP1;ratioP1;P2;durP2;ratioP2
7181;SDS011;3632;42.724;23.298;2023-03-01T00:00:54;3.67;;;3.33;;
7181;SDS011;3632;42.724;23.298;2023-03-01T00:03:21;4.27;;;3.50;;
7181;SDS011;3632;42.724;23.298;2023-03-01T00:05:48;3.90;;;3.50;;
7181;SDS011;3632;42.724;23.298;2023-03-01T00:08:14;3.30;;;3.00;;
7181;SDS011;3632;42.724;23.298;2023-03-01T00:10:43;3.50;;;3.20;;
7181;SDS011;3632;42.724;23.298;2023-03-01T00:13:09;3.80;;;3.30;;
7181;SDS011;3632;42.724;23.298;2023-03-01T00:15:38;3.77;;;3.37;;
7181;SDS011;3632;42.724;23.298;2023-03-01T00:18:06;3.37;;;3.07;;
7181;SDS011;3632;42.724;23.298;2023-03-01T00:20:33;3.50;;;3.20;;
7181;SDS011;3632;42.724;23.298;2023-03-01T00:23:00;3.70;;;3.23;;
7181;SDS011;3632;42.724;23.298;2023-03-01T00:25:27;3.23;;;2.83;;
7181;SDS011;3632;42.724;23.298;2023-03-01T00:27:56;4.60;;;2.70;;
7181;SDS011;3632;42.724;23.298;2023-03-01T00:30:22;2.60;;;2.40;;
7181;SDS011;3632;42.724;23.298;2023-03-01T00:32:49;3.27;;;2.60;;
7181;SDS011;3632;42.724;23.298;2023-03-01T00:35:16;3.03;;;2.30;;
7181;SDS011;3632;42.724;23.298;2023-03-01T00:37:43;3.07;;;2.80;;
7181;SDS011;3632;42.724;23.298;2023-03-01T00:40:11;2.77;;;2.33;;
7181;SDS011;3632;42.724;23.298;2023-03-01T00:42:41;2.60;;;2.40;;
7181;SDS011;3632;42.724;23.298;2023-03-01T00:45:10;2.60;;;2.40;;
7181;SDS011;3632;42.724;23.298;2023-03-01T00:47:38;2.97;;;2.67;;
7181;SDS011;3632;42.724;23.298;2023-03-01T00:50:06;3.00;;;2.50;;
7181;SDS011;3632;42.724;23.298;2023-03-01T00:52:35;3.23;;;2.43;;
7181;SDS011;3632;42.724;23.298;2023-03-01T00:55:04;2.87;;;2.57;;
7181;SDS011;3632;42.724;23.298;2023-03-01T00:57:32;2.90;;;2.70;;
7181;SDS011;3632;42.724;23.298;2023-03-01T00:59:59;2.60;;;2.40;;
7181;SDS011;3632;42.724;23.298;2023-03-01T01:02:29;3.27;;;2.90;;
7181;SDS011;3632;42.724;23.298;2023-03-01T01:04:56;2.90;;;2.60;;
7181;SDS011;3632;42.724;23.298;2023-03-01T01:07:22;3.57;;;2.90;;
7181;SDS011;3632;42.724;23.298;2023-03-01T01:09:49;3.63;;;3.10;;
7181;SDS011;3632;42.724;23.298;2023-03-01T01:12:16;3.50;;;3.10;;
7181;SDS011;3632;42.724;23.298;2023-03-01T01:14:43;3.30;;;2.83;;
7181;SDS011;3632;42.724;23.298;2023-03-01T01:17:11;4.00;;;3.30;;
7181;SDS011;3632;42.724;23.298;2023-03-01T01:19:39;3.70;;;2.87;;
7181;SDS011;3632;42.724;23.298;2023-03-01T01:22:06;2.80;;;2.37;;
7181;SDS011;3632;42.724;23.298;2023-03-01T01:24:33;3.37;;;2.50;;
7181;SDS011;3632;42.724;23.298;2023-03-01T01:27:00;2.80;;;2.50;;
7181;SDS011;3632;42.724;23.298;2023-03-01T01:29:27;2.60;;;2.40;;
7181;SDS011;3632;42.724;23.298;2023-03-01T01:31:53;2.47;;;2.27;;
7181;SDS011;3632;42.724;23.298;2023-03-01T02:04:37;2.70;;;1.90;;
7181;SDS011;3632;42.724;23.298;2023-03-01T02:07:06;2.87;;;2.10;;
7181;SDS011;3632;42.724;23.298;2023-03-01T02:09:38;2.50;;;1.77;;
7181;SDS011;3632;42.724;23.298;2023-03-01T02:12:05;2.17;;;2.03;;
7181;SDS011;3632;42.724;23.298;2023-03-01T02:14:33;2.37;;;2.17;;
7181;SDS011;3632;42.724;23.298;2023-03-01T02:17:00;1.80;;;1.70;;
7181;SDS011;3632;42.724;23.298;2023-03-01T02:19:30;1.90;;;1.80;;
7181;SDS011;3632;42.724;23.298;2023-03-01T02:22:12;2.37;;;2.17;;
7181;SDS011;3632;42.724;23.298;2023-03-01T02:24:49;3.07;;;2.37;;
7181;SDS011;3632;42.724;23.298;2023-03-01T02:27:28;5.60;;;3.60;;
7181;SDS011;3632;42.724;23.298;2023-03-01T02:30:03;6.07;;;3.83;;
7181;SDS011;3632;42.724;23.298;2023-03-01T02:35:53;3.90;;;3.60;;
7181;SDS011;3632;42.724;23.298;2023-03-01T02:38:22;3.50;;;3.20;;
7181;SDS011;3632;42.724;23.298;2023-03-01T02:40:50;3.60;;;3.30;;
7181;SDS011;3632;42.724;23.298;2023-03-01T02:46:24;3.50;;;3.20;;
7181;SDS011;3632;42.724;23.298;2023-03-01T02:48:52;4.20;;;3.10;;
7181;SDS011;3632;42.724;23.298;2023-03-01T02:51:24;2.90;;;2.70;;
7181;SDS011;3632;42.724;23.298;2023-03-01T03:00:41;5.20;;;2.70;;
7181;SDS011;3632;42.724;23.298;2023-03-01T03:03:11;3.20;;;2.90;;
7181;SDS011;3632;42.724;23.298;2023-03-01T03:05:40;3.60;;;2.70;;
7181;SDS011;3632;42.724;23.298;2023-03-01T03:08:07;3.53;;;3.10;;
7181;SDS011;3632;42.724;23.298;2023-03-01T03:10:35;4.50;;;3.70;;
7181;SDS011;3632;42.724;23.298;2023-03-01T03:13:05;4.33;;;3.40;;
7181;SDS011;3632;42.724;23.298;2023-03-01T03:15:33;5.30;;;3.43;;
7181;SDS011;3632;42.724;23.298;2023-03-01T03:18:02;3.50;;;2.80;;
7181;SDS011;3632;42.724;23.298;2023-03-01T03:20:32;2.60;;;2.40;;
7181;SDS011;3632;42.724;23.298;2023-03-01T03:22:59;2.97;;;2.50;;
7181;SDS011;3632;42.724;23.298;2023-03-01T03:25:27;2.40;;;2.20;;
7181;SDS011;3632;42.724;23.298;2023-03-01T03:27:55;2.40;;;2.20;;
7181;SDS011;3632;42.724;23.298;2023-03-01T03:30:23;2.30;;;2.10;;
7181;SDS011;3632;42.724;23.298;2023-03-01T03:32:52;3.30;;;3.00;;
7181;SDS011;3632;42.724;23.298;2023-03-01T03:35:19;5.50;;;3.90;;
7181;SDS011;3632;42.724;23.298;2023-03-01T03:37:49;3.30;;;3.00;;
7181;SDS011;3632;42.724;23.298;2023-03-01T03:40:29;3.57;;;2.60;;
7181;SDS011;3632;42.724;23.298;2023-03-01T03:42:57;2.50;;;2.30;;
7181;SDS011;3632;42.724;23.298;2023-03-01T03:45:24;2.27;;;2.13;;
7181;SDS011;3632;42.724;23.298;2023-03-01T03:47:51;2.37;;;2.17;;
7181;SDS011;3632;42.724;23.298;2023-03-01T03:50:18;2.10;;;2.00;;
7181;SDS011;3632;42.724;23.298;2023-03-01T03:52:45;1.97;;;1.87;;
7181;SDS011;3632;42.724;23.298;2023-03-01T03:55:13;2.10;;;2.00;;
7181;SDS011;3632;42.724;23.298;2023-03-01T03:57:44;2.33;;;2.13;;
7181;SDS011;3632;42.724;23.298;2023-03-01T04:00:17;2.37;;;2.17;;
7181;SDS011;3632;42.724;23.298;2023-03-01T04:02:46;2.10;;;2.00;;
7181;SDS011;3632;42.724;23.298;2023-03-01T04:05:15;2.40;;;2.20;;
7181;SDS011;3632;42.724;23.298;2023-03-01T04:07:43;2.20;;;2.00;;
7181;SDS011;3632;42.724;23.298;2023-03-01T04:10:11;1.80;;;1.67;;
7181;SDS011;3632;42.724;23.298;2023-03-01T04:12:40;2.00;;;1.90;;
7181;SDS011;3632;42.724;23.298;2023-03-01T04:15:08;2.30;;;2.10;;
7181;SDS011;3632;42.724;23.298;2023-03-01T04:17:38;2.13;;;2.00;;
7181;SDS011;3632;42.724;23.298;2023-03-01T04:20:06;2.40;;;2.20;;
7181;SDS011;3632;42.724;23.298;2023-03-01T04:22:36;2.10;;;2.00;;
7181;SDS011;3632;42.724;23.298;2023-03-01T04:25:03;2.37;;;2.17;;
7181;SDS011;3632;42.724;23.298;2023-03-01T04:27:33;2.53;;;2.33;;
7181;SDS011;3632;42.724;23.298;2023-03-01T04:29:59;3.03;;;2.70;;
7181;SDS011;3632;42.724;23.298;2023-03-01T04:32:26;2.40;;;2.20;;
7181;SDS011;3632;42.724;23.298;2023-03-01T04:34:53;3.00;;;2.30;;
7181;SDS011;3632;42.724;23.298;2023-03-01T04:37:20;2.50;;;2.10;;
7181;SDS011;3632;42.724;23.298;2023-03-01T04:39:47;3.07;;;2.77;;
7181;SDS011;3632;42.724;23.298;2023-03-01T04:42:14;2.57;;;2.33;;
7181;SDS011;3632;42.724;23.298;2023-03-01T04:44:43;2.87;;;2.33;;
7181;SDS011;3632;42.724;23.298;2023-03-01T04:47:10;3.37;;;2.20;;
7181;SDS011;3632;42.724;23.298;2023-03-01T04:49:36;2.03;;;1.77;;
7181;SDS011;3632;42.724;23.298;2023-03-01T04:52:03;2.07;;;1.87;;
7181;SDS011;3632;42.724;23.298;2023-03-01T04:54:31;2.43;;;1.97;;
7181;SDS011;3632;42.724;23.298;2023-03-01T04:56:59;2.30;;;2.10;;
7181;SDS011;3632;42.724;23.298;2023-03-01T04:59:26;2.33;;;1.97;;
7181;SDS011;3632;42.724;23.298;2023-03-01T05:01:55;3.90;;;2.13;;
7181;SDS011;3632;42.724;23.298;2023-03-01T05:04:22;2.17;;;1.90;;
7181;SDS011;3632;42.724;23.298;2023-03-01T05:06:49;5.27;;;3.97;;
7181;SDS011;3632;42.724;23.298;2023-03-01T05:09:18;3.73;;;3.33;;
7181;SDS011;3632;42.724;23.298;2023-03-01T05:11:45;1.70;;;1.50;;
7181;SDS011;3632;42.724;23.298;2023-03-01T05:14:12;2.83;;;1.80;;
7181;SDS011;3632;42.724;23.298;2023-03-01T05:16:39;1.90;;;1.70;;
7181;SDS011;3632;42.724;23.298;2023-03-01T05:19:07;3.20;;;2.23;;
7181;SDS011;3632;42.724;23.298;2023-03-01T05:21:40;3.87;;;2.60;;
7181;SDS011;3632;42.724;23.298;2023-03-01T05:24:21;5.40;;;3.30;;
7181;SDS011;3632;42.724;23.298;2023-03-01T05:26:48;7.03;;;4.10;;
7181;SDS011;3632;42.724;23.298;2023-03-01T05:29:17;6.87;;;4.10;;
7181;SDS011;3632;42.724;23.298;2023-03-01T05:31:50;4.60;;;3.70;;
7181;SDS011;3632;42.724;23.298;2023-03-01T05:34:18;4.20;;;3.50;;
7181;SDS011;3632;42.724;23.298;2023-03-01T05:36:48;3.63;;;3.20;;
7181;SDS011;3632;42.724;23.298;2023-03-01T05:39:16;5.30;;;3.90;;
7181;SDS011;3632;42.724;23.298;2023-03-01T05:41:43;5.27;;;3.90;;
7181;SDS011;3632;42.724;23.298;2023-03-01T05:44:09;6.03;;;5.17;;
7181;SDS011;3632;42.724;23.298;2023-03-01T05:46:37;5.47;;;4.63;;
7181;SDS011;3632;42.724;23.298;2023-03-01T05:49:04;5.63;;;4.83;;
7181;SDS011;3632;42.724;23.298;2023-03-01T05:51:32;6.80;;;4.67;;
7181;SDS011;3632;42.724;23.298;2023-03-01T05:53:59;4.77;;;4.27;;
7181;SDS011;3632;42.724;23.298;2023-03-01T05:56:26;5.20;;;4.70;;
7181;SDS011;3632;42.724;23.298;2023-03-01T05:58:54;5.63;;;4.87;;
7181;SDS011;3632;42.724;23.298;2023-03-01T06:01:20;4.50;;;4.03;;
7181;SDS011;3632;42.724;23.298;2023-03-01T06:03:47;4.80;;;4.03;;
7181;SDS011;3632;42.724;23.298;2023-03-01T06:06:14;5.03;;;4.37;;
7181;SDS011;3632;42.724;23.298;2023-03-01T06:08:42;4.93;;;4.40;;
7181;SDS011;3632;42.724;23.298;2023-03-01T06:11:09;5.27;;;4.47;;
7181;SDS011;3632;42.724;23.298;2023-03-01T06:13:36;4.90;;;4.33;;
7181;SDS011;3632;42.724;23.298;2023-03-01T06:16:04;6.80;;;4.40;;
7181;SDS011;3632;42.724;23.298;2023-03-01T06:18:31;8.40;;;4.13;;
7181;SDS011;3632;42.724;23.298;2023-03-01T06:20:58;5.80;;;4.67;;
7181;SDS011;3632;42.724;23.298;2023-03-01T06:23:24;5.37;;;4.87;;
7181;SDS011;3632;42.724;23.298;2023-03-01T06:25:53;5.33;;;4.83;;
7181;SDS011;3632;42.724;23.298;2023-03-01T06:28:20;5.70;;;5.20;;
7181;SDS011;3632;42.724;23.298;2023-03-01T06:30:47;6.50;;;4.50;;
7181;SDS011;3632;42.724;23.298;2023-03-01T06:33:13;4.93;;;3.87;;
7181;SDS011;3632;42.724;23.298;2023-03-01T06:35:40;4.90;;;4.33;;
7181;SDS011;3632;42.724;23.298;2023-03-01T06:38:07;4.90;;;4.40;;
7181;SDS011;3632;42.724;23.298;2023-03-01T06:40:33;5.13;;;4.10;;
7181;SDS011;3632;42.724;23.298;2023-03-01T06:43:02;5.00;;;3.37;;
7181;SDS011;3632;42.724;23.298;2023-03-01T06:45:29;4.10;;;3.40;;
7181;SDS011;3632;42.724;23.298;2023-03-01T06:48:01;4.77;;;4.27;;
7181;SDS011;3632;42.724;23.298;2023-03-01T06:50:29;4.33;;;3.40;;
7181;SDS011;3632;42.724;23.298;2023-03-01T06:52:55;3.83;;;3.33;;
7181;SDS011;3632;42.724;23.298;2023-03-01T06:55:23;4.63;;;3.30;;
7181;SDS011;3632;42.724;23.298;2023-03-01T06:57:53;5.13;;;3.40;;
7181;SDS011;3632;42.724;23.298;2023-03-01T07:00:22;4.07;;;3.67;;
7181;SDS011;3632;42.724;23.298;2023-03-01T07:02:50;6.33;;;3.47;;
7181;SDS011;3632;42.724;23.298;2023-03-01T07:05:16;6.43;;;3.10;;
7181;SDS011;3632;42.724;23.298;2023-03-01T07:07:43;3.47;;;2.93;;
7181;SDS011;3632;42.724;23.298;2023-03-01T07:10:10;3.87;;;2.90;;
7181;SDS011;3632;42.724;23.298;2023-03-01T07:12:38;6.73;;;4.07;;
7181;SDS011;3632;42.724;23.298;2023-03-01T07:15:07;4.37;;;3.57;;
7181;SDS011;3632;42.724;23.298;2023-03-01T07:17:37;4.00;;;3.20;;
7181;SDS011;3632;42.724;23.298;2023-03-01T07:20:04;3.17;;;2.83;;
7181;SDS011;3632;42.724;23.298;2023-03-01T07:22:32;3.93;;;3.33;;
7181;SDS011;3632;42.724;23.298;2023-03-01T07:24:59;4.47;;;3.33;;
7181;SDS011;3632;42.724;23.298;2023-03-01T07:27:26;3.00;;;2.67;;
7181;SDS011;3632;42.724;23.298;2023-03-01T07:29:52;5.60;;;2.73;;
7181;SDS011;3632;42.724;23.298;2023-03-01T07:32:19;4.03;;;2.60;;
7181;SDS011;3632;42.724;23.298;2023-03-01T07:34:47;7.03;;;3.10;;
7181;SDS011;3632;42.724;23.298;2023-03-01T07:37:14;3.90;;;2.87;;
7181;SDS011;3632;42.724;23.298;2023-03-01T07:39:41;4.77;;;3.20;;
7181;SDS011;3632;42.724;23.298;2023-03-01T07:42:07;5.47;;;3.30;;
7181;SDS011;3632;42.724;23.298;2023-03-01T07:44:35;5.10;;;3.57;;
7181;SDS011;3632;42.724;23.298;2023-03-01T07:47:02;4.60;;;3.23;;
7181;SDS011;3632;42.724;23.298;2023-03-01T07:49:29;5.37;;;4.80;;
7181;SDS011;3632;42.724;23.298;2023-03-01T07:51:57;8.03;;;6.00;;
7181;SDS011;3632;42.724;23.298;2023-03-01T07:54:24;6.37;;;4.97;;
7181;SDS011;3632;42.724;23.298;2023-03-01T07:56:51;4.20;;;3.80;;
7181;SDS011;3632;42.724;23.298;2023-03-01T07:59:19;4.27;;;3.50;;
7181;SDS011;3632;42.724;23.298;2023-03-01T08:01:46;3.60;;;2.70;;
7181;SDS011;3632;42.724;23.298;2023-03-01T08:04:13;5.57;;;2.80;;
7181;SDS011;3632;42.724;23.298;2023-03-01T08:06:40;4.23;;;2.67;;
7181;SDS011;3632;42.724;23.298;2023-03-01T08:09:08;3.87;;;3.23;;
7181;SDS011;3632;42.724;23.298;2023-03-01T08:11:35;5.07;;;3.60;;
7181;SDS011;3632;42.724;23.298;2023-03-01T08:14:02;7.23;;;4.33;;
7181;SDS011;3632;42.724;23.298;2023-03-01T08:16:29;6.00;;;3.40;;
7181;SDS011;3632;42.724;23.298;2023-03-01T08:18:57;5.57;;;4.10;;
7181;SDS011;3632;42.724;23.298;2023-03-01T08:21:26;7.23;;;3.60;;
7181;SDS011;3632;42.724;23.298;2023-03-01T08:23:53;8.17;;;3.73;;
7181;SDS011;3632;42.724;23.298;2023-03-01T08:26:21;5.77;;;3.97;;
7181;SDS011;3632;42.724;23.298;2023-03-01T08:28:48;6.97;;;4.13;;
7181;SDS011;3632;42.724;23.298;2023-03-01T08:31:16;6.53;;;3.90;;
7181;SDS011;3632;42.724;23.298;2023-03-01T08:33:45;4.47;;;2.93;;
7181;SDS011;3632;42.724;23.298;2023-03-01T08:36:20;4.50;;;3.23;;
7181;SDS011;3632;42.724;23.298;2023-03-01T08:38:47;4.33;;;2.80;;
7181;SDS011;3632;42.724;23.298;2023-03-01T08:41:15;3.80;;;2.70;;
7181;SDS011;3632;42.724;23.298;2023-03-01T08:43:43;3.33;;;2.70;;
7181;SDS011;3632;42.724;23.298;2023-03-01T08:46:10;9.00;;;7.30;;
7181;SDS011;3632;42.724;23.298;2023-03-01T08:48:37;6.57;;;4.53;;
7181;SDS011;3632;42.724;23.298;2023-03-01T08:51:09;6.23;;;4.77;;
7181;SDS011;3632;42.724;23.298;2023-03-01T08:53:37;3.63;;;2.80;;
7181;SDS011;3632;42.724;23.298;2023-03-01T08:56:04;4.47;;;3.70;;
7181;SDS011;3632;42.724;23.298;2023-03-01T08:58:31;3.77;;;3.43;;
7181;SDS011;3632;42.724;23.298;2023-03-01T09:01:00;7.47;;;5.33;;
7181;SDS011;3632;42.724;23.298;2023-03-01T09:03:27;5.37;;;4.87;;
7181;SDS011;3632;42.724;23.298;2023-03-01T09:05:59;9.20;;;3.93;;
7181;SDS011;3632;42.724;23.298;2023-03-01T09:08:27;3.63;;;3.33;;
7181;SDS011;3632;42.724;23.298;2023-03-01T09:10:54;4.50;;;3.13;;
7181;SDS011;3632;42.724;23.298;2023-03-01T09:13:21;3.63;;;3.30;;
7181;SDS011;3632;42.724;23.298;2023-03-01T09:15:50;5.23;;;3.60;;
7181;SDS011;3632;42.724;23.298;2023-03-01T09:18:18;3.23;;;2.93;;
7181;SDS011;3632;42.724;23.298;2023-03-01T09:20:45;7.17;;;3.27;;
7181;SDS011;3632;42.724;23.298;2023-03-01T09:23:12;5.93;;;3.50;;
7181;SDS011;3632;42.724;23.298;2023-03-01T09:25:38;7.23;;;4.70;;
7181;SDS011;3632;42.724;23.298;2023-03-01T09:28:05;2.77;;;2.30;;
7181;SDS011;3632;42.724;23.298;2023-03-01T09:30:32;5.57;;;3.07;;
7181;SDS011;3632;42.724;23.298;2023-03-01T09:32:59;2.87;;;2.40;;
7181;SDS011;3632;42.724;23.298;2023-03-01T09:35:27;2.90;;;2.30;;
7181;SDS011;3632;42.724;23.298;2023-03-01T09:37:54;5.40;;;3.17;;
7181;SDS011;3632;42.724;23.298;2023-03-01T09:40:21;4.27;;;3.00;;
7181;SDS011;3632;42.724;23.298;2023-03-01T09:42:51;2.60;;;2.37;;
7181;SDS011;3632;42.724;23.298;2023-03-01T09:45:24;3.73;;;2.60;;
7181;SDS011;3632;42.724;23.298;2023-03-01T09:47:55;5.00;;;3.60;;
7181;SDS011;3632;42.724;23.298;2023-03-01T09:50:22;2.30;;;2.10;;
7181;SDS011;3632;42.724;23.298;2023-03-01T09:52:53;2.63;;;2.30;;
7181;SDS011;3632;42.724;23.298;2023-03-01T09:55:26;2.80;;;1.93;;
7181;SDS011;3632;42.724;23.298;2023-03-01T09:57:58;2.40;;;1.97;;
7181;SDS011;3632;42.724;23.298;2023-03-01T10:00:33;4.83;;;2.47;;
7181;SDS011;3632;42.724;23.298;2023-03-01T10:03:09;3.03;;;2.00;;
7181;SDS011;3632;42.724;23.298;2023-03-01T10:05:50;3.00;;;2.30;;
7181;SDS011;3632;42.724;23.298;2023-03-01T10:08:28;1.77;;;1.37;;
7181;SDS011;3632;42.724;23.298;2023-03-01T10:11:01;2.53;;;1.70;;
7181;SDS011;3632;42.724;23.298;2023-03-01T10:13:31;3.50;;;1.90;;
7181;SDS011;3632;42.724;23.298;2023-03-01T10:16:05;1.60;;;1.50;;
7181;SDS011;3632;42.724;23.298;2023-03-01T10:18:39;1.57;;;1.37;;
7181;SDS011;3632;42.724;23.298;2023-03-01T10:21:11;2.87;;;1.57;;
7181;SDS011;3632;42.724;23.298;2023-03-01T10:23:42;3.87;;;2.00;;
7181;SDS011;3632;42.724;23.298;2023-03-01T10:26:15;2.03;;;1.57;;
7181;SDS011;3632;42.724;23.298;2023-03-01T10:28:58;3.10;;;2.50;;
7181;SDS011;3632;42.724;23.298;2023-03-01T10:31:31;2.03;;;1.40;;
7181;SDS011;3632;42.724;23.298;2023-03-01T10:34:07;2.17;;;1.80;;
7181;SDS011;3632;42.724;23.298;2023-03-01T10:36:35;2.90;;;1.80;;
7181;SDS011;3632;42.724;23.298;2023-03-01T10:39:12;3.00;;;2.10;;
7181;SDS011;3632;42.724;23.298;2023-03-01T10:41:54;2.20;;;1.80;;
7181;SDS011;3632;42.724;23.298;2023-03-01T10:44:34;3.40;;;2.37;;
7181;SDS011;3632;42.724;23.298;2023-03-01T10:47:03;5.03;;;3.67;;
7181;SDS011;3632;42.724;23.298;2023-03-01T10:49:30;4.53;;;3.27;;
7181;SDS011;3632;42.724;23.298;2023-03-01T10:51:57;1.70;;;1.50;;
7181;SDS011;3632;42.724;23.298;2023-03-01T10:54:50;5.60;;;2.27;;
7181;SDS011;3632;42.724;23.298;2023-03-01T10:57:34;4.00;;;3.40;;
7181;SDS011;3632;42.724;23.298;2023-03-01T11:03:04;2.73;;;2.30;;
7181;SDS011;3632;42.724;23.298;2023-03-01T11:05:44;4.07;;;1.73;;
7181;SDS011;3632;42.724;23.298;2023-03-01T11:08:28;3.17;;;1.90;;
7181;SDS011;3632;42.724;23.298;2023-03-01T11:11:06;3.77;;;2.07;;
7181;SDS011;3632;42.724;23.298;2023-03-01T11:13:53;2.47;;;2.10;;
7181;SDS011;3632;42.724;23.298;2023-03-01T11:16:23;1.77;;;1.50;;
7181;SDS011;3632;42.724;23.298;2023-03-01T11:18:56;3.57;;;2.80;;
7181;SDS011;3632;42.724;23.298;2023-03-01T11:21:24;3.83;;;2.70;;
7181;SDS011;3632;42.724;23.298;2023-03-01T11:23:54;4.40;;;2.83;;
7181;SDS011;3632;42.724;23.298;2023-03-01T11:26:24;7.13;;;4.07;;
7181;SDS011;3632;42.724;23.298;2023-03-01T11:28:53;5.40;;;2.67;;
7181;SDS011;3632;42.724;23.298;2023-03-01T11:31:23;2.90;;;2.37;;
7181;SDS011;3632;42.724;23.298;2023-03-01T11:33:53;3.23;;;2.80;;
7181;SDS011;3632;42.724;23.298;2023-03-01T11:36:26;10.83;;;7.80;;
7181;SDS011;3632;42.724;23.298;2023-03-01T11:38:57;4.87;;;3.77;;
7181;SDS011;3632;42.724;23.298;2023-03-01T11:41:31;4.43;;;2.57;;
7181;SDS011;3632;42.724;23.298;2023-03-01T11:44:00;3.90;;;2.77;;
7181;SDS011;3632;42.724;23.298;2023-03-01T11:46:47;4.00;;;2.60;;
7181;SDS011;3632;42.724;23.298;2023-03-01T11:49:36;5.27;;;2.87;;
7181;SDS011;3632;42.724;23.298;2023-03-01T11:52:30;3.87;;;3.17;;
7181;SDS011;3632;42.724;23.298;2023-03-01T11:58:05;4.77;;;2.50;;
7181;SDS011;3632;42.724;23.298;2023-03-01T12:00:43;5.10;;;3.50;;
7181;SDS011;3632;42.724;23.298;2023-03-01T12:03:28;2.90;;;2.00;;
7181;SDS011;3632;42.724;23.298;2023-03-01T12:06:12;2.40;;;2.00;;
7181;SDS011;3632;42.724;23.298;2023-03-01T12:08:52;3.60;;;2.90;;
7181;SDS011;3632;42.724;23.298;2023-03-01T12:11:31;3.43;;;2.70;;
7181;SDS011;3632;42.724;23.298;2023-03-01T12:14:28;4.73;;;3.33;;
7181;SDS011;3632;42.724;23.298;2023-03-01T12:17:15;2.63;;;1.80;;
7181;SDS011;3632;42.724;23.298;2023-03-01T12:20:08;3.00;;;1.97;;
7181;SDS011;3632;42.724;23.298;2023-03-01T12:22:46;2.10;;;1.90;;
7181;SDS011;3632;42.724;23.298;2023-03-01T12:25:22;2.70;;;2.40;;
7181;SDS011;3632;42.724;23.298;2023-03-01T12:28:04;2.37;;;2.17;;
7181;SDS011;3632;42.724;23.298;2023-03-01T12:31:11;6.10;;;4.30;;
7181;SDS011;3632;42.724;23.298;2023-03-01T12:33:57;3.20;;;2.20;;
7181;SDS011;3632;42.724;23.298;2023-03-01T12:36:46;6.17;;;3.03;;
7181;SDS011;3632;42.724;23.298;2023-03-01T12:39:29;8.87;;;4.80;;
7181;SDS011;3632;42.724;23.298;2023-03-01T12:42:05;4.50;;;2.90;;
7181;SDS011;3632;42.724;23.298;2023-03-01T12:44:47;2.77;;;1.97;;
7181;SDS011;3632;42.724;23.298;2023-03-01T12:47:35;4.10;;;3.33;;
7181;SDS011;3632;42.724;23.298;2023-03-01T12:50:17;4.67;;;2.80;;
7181;SDS011;3632;42.724;23.298;2023-03-01T12:52:47;4.57;;;3.10;;
7181;SDS011;3632;42.724;23.298;2023-03-01T12:55:24;2.77;;;2.20;;
7181;SDS011;3632;42.724;23.298;2023-03-01T12:57:57;3.17;;;2.00;;
7181;SDS011;3632;42.724;23.298;2023-03-01T13:00:34;3.30;;;2.27;;
7181;SDS011;3632;42.724;23.298;2023-03-01T13:03:09;9.53;;;5.27;;
7181;SDS011;3632;42.724;23.298;2023-03-01T13:05:45;4.73;;;3.97;;
7181;SDS011;3632;42.724;23.298;2023-03-01T13:08:29;4.87;;;3.00;;
7181;SDS011;3632;42.724;23.298;2023-03-01T13:11:03;4.43;;;2.60;;
7181;SDS011;3632;42.724;23.298;2023-03-01T13:13:32;4.97;;;2.43;;
7181;SDS011;3632;42.724;23.298;2023-03-01T13:16:19;6.77;;;4.00;;
7181;SDS011;3632;42.724;23.298;2023-03-01T13:18:50;7.83;;;4.63;;
7181;SDS011;3632;42.724;23.298;2023-03-01T13:21:32;3.93;;;2.50;;
7181;SDS011;3632;42.724;23.298;2023-03-01T13:23:59;4.20;;;3.63;;
7181;SDS011;3632;42.724;23.298;2023-03-01T13:26:26;4.50;;;3.77;;
7181;SDS011;3632;42.724;23.298;2023-03-01T13:32:22;4.00;;;2.90;;
7181;SDS011;3632;42.724;23.298;2023-03-01T13:34:55;3.40;;;3.00;;
7181;SDS011;3632;42.724;23.298;2023-03-01T13:37:26;4.90;;;3.10;;
7181;SDS011;3632;42.724;23.298;2023-03-01T13:39:59;5.03;;;2.90;;
7181;SDS011;3632;42.724;23.298;2023-03-01T13:42:34;5.77;;;3.10;;
7181;SDS011;3632;42.724;23.298;2023-03-01T13:45:17;6.60;;;2.80;;
7181;SDS011;3632;42.724;23.298;2023-03-01T13:47:47;6.80;;;3.80;;
7181;SDS011;3632;42.724;23.298;2023-03-01T13:50:19;3.23;;;2.93;;
7181;SDS011;3632;42.724;23.298;2023-03-01T13:52:50;4.10;;;3.50;;
7181;SDS011;3632;42.724;23.298;2023-03-01T13:55:23;6.40;;;3.67;;
7181;SDS011;3632;42.724;23.298;2023-03-01T13:57:54;6.37;;;4.57;;
7181;SDS011;3632;42.724;23.298;2023-03-01T14:00:26;7.10;;;5.20;;
7181;SDS011;3632;42.724;23.298;2023-03-01T14:03:11;7.43;;;4.10;;
7181;SDS011;3632;42.724;23.298;2023-03-01T14:05:42;5.70;;;4.90;;
7181;SDS011;3632;42.724;23.298;2023-03-01T14:08:23;5.67;;;4.27;;
7181;SDS011;3632;42.724;23.298;2023-03-01T14:10:54;6.80;;;5.33;;
7181;SDS011;3632;42.724;23.298;2023-03-01T14:13:39;7.73;;;4.93;;
7181;SDS011;3632;42.724;23.298;2023-03-01T14:16:22;4.77;;;3.37;;
7181;SDS011;3632;42.724;23.298;2023-03-01T14:19:14;6.30;;;5.17;;
7181;SDS011;3632;42.724;23.298;2023-03-01T14:21:46;6.63;;;4.10;;
7181;SDS011;3632;42.724;23.298;2023-03-01T14:24:22;6.30;;;4.27;;
7181;SDS011;3632;42.724;23.298;2023-03-01T14:26:49;5.87;;;4.77;;
7181;SDS011;3632;42.724;23.298;2023-03-01T14:29:26;5.87;;;4.17;;
7181;SDS011;3632;42.724;23.298;2023-03-01T14:32:08;4.07;;;3.33;;
7181;SDS011;3632;42.724;23.298;2023-03-01T14:34:36;6.90;;;4.33;;
7181;SDS011;3632;42.724;23.298;2023-03-01T14:37:14;7.80;;;4.13;;
7181;SDS011;3632;42.724;23.298;2023-03-01T14:39:45;5.70;;;4.53;;
7181;SDS011;3632;42.724;23.298;2023-03-01T14:42:12;5.43;;;4.20;;
7181;SDS011;3632;42.724;23.298;2023-03-01T14:44:41;7.37;;;4.40;;
7181;SDS011;3632;42.724;23.298;2023-03-01T14:47:11;8.03;;;5.07;;
7181;SDS011;3632;42.724;23.298;2023-03-01T14:49:41;9.07;;;5.20;;
7181;SDS011;3632;42.724;23.298;2023-03-01T14:52:18;4.77;;;4.00;;
7181;SDS011;3632;42.724;23.298;2023-03-01T14:54:48;6.50;;;4.07;;
7181;SDS011;3632;42.724;23.298;2023-03-01T14:57:19;4.90;;;3.13;;
7181;SDS011;3632;42.724;23.298;2023-03-01T14:59:48;7.47;;;3.80;;
7181;SDS011;3632;42.724;23.298;2023-03-01T15:02:18;5.73;;;3.70;;
7181;SDS011;3632;42.724;23.298;2023-03-01T15:04:48;4.67;;;2.93;;
7181;SDS011;3632;42.724;23.298;2023-03-01T15:07:19;5.87;;;4.27;;
7181;SDS011;3632;42.724;23.298;2023-03-01T15:09:46;5.20;;;3.50;;
7181;SDS011;3632;42.724;23.298;2023-03-01T15:12:33;6.23;;;3.47;;
7181;SDS011;3632;42.724;23.298;2023-03-01T15:15:18;5.43;;;4.10;;
7181;SDS011;3632;42.724;23.298;2023-03-01T15:17:56;7.57;;;4.33;;
7181;SDS011;3632;42.724;23.298;2023-03-01T15:20:27;4.63;;;3.03;;
7181;SDS011;3632;42.724;23.298;2023-03-01T15:22:57;5.30;;;3.83;;
7181;SDS011;3632;42.724;23.298;2023-03-01T15:25:26;4.60;;;2.83;;
7181;SDS011;3632;42.724;23.298;2023-03-01T15:27:55;5.53;;;3.17;;
7181;SDS011;3632;42.724;23.298;2023-03-01T15:30:26;7.87;;;3.00;;
7181;SDS011;3632;42.724;23.298;2023-03-01T15:35:46;9.10;;;3.57;;
7181;SDS011;3632;42.724;23.298;2023-03-01T15:38:24;7.90;;;4.00;;
7181;SDS011;3632;42.724;23.298;2023-03-01T15:40:57;8.00;;;4.50;;
7181;SDS011;3632;42.724;23.298;2023-03-01T15:43:39;8.83;;;4.57;;
7181;SDS011;3632;42.724;23.298;2023-03-01T15:46:16;7.20;;;3.70;;
7181;SDS011;3632;42.724;23.298;2023-03-01T15:48:52;6.37;;;3.53;;
7181;SDS011;3632;42.724;23.298;2023-03-01T15:51:22;5.17;;;4.00;;
7181;SDS011;3632;42.724;23.298;2023-03-01T15:53:57;8.00;;;5.10;;
7181;SDS011;3632;42.724;23.298;2023-03-01T15:56:26;8.43;;;5.50;;
7181;SDS011;3632;42.724;23.298;2023-03-01T15:58:57;8.07;;;4.60;;
7181;SDS011;3632;42.724;23.298;2023-03-01T16:01:24;8.60;;;5.20;;
7181;SDS011;3632;42.724;23.298;2023-03-01T16:03:51;8.90;;;5.60;;
7181;SDS011;3632;42.724;23.298;2023-03-01T16:06:18;6.80;;;4.40;;
7181;SDS011;3632;42.724;23.298;2023-03-01T16:08:45;5.97;;;3.70;;
7181;SDS011;3632;42.724;23.298;2023-03-01T16:11:15;6.63;;;3.70;;
7181;SDS011;3632;42.724;23.298;2023-03-01T16:13:44;9.60;;;4.40;;
7181;SDS011;3632;42.724;23.298;2023-03-01T16:16:11;7.33;;;4.43;;
7181;SDS011;3632;42.724;23.298;2023-03-01T16:18:41;5.77;;;4.47;;